Time;durP1;ratioP1;P1;durP2;ratioP2;P2;SDS_P1;SDS_P2;PMS_P1;PMS_P2;Temp;Humidity;BMP_temperature;BMP_pressure;BME280_temperature;BME280_humidity;BME280_pressure;Samples;Min_cycle;Max_cycle;Signal;HPM_P1;HPM_P2
2023/12/02 00:02:25;;;;;;;50.47;23.63;;;;;;;;;;10462642;28;20634;-65
2023/12/02 00:07:25;;;;;;;47.53;22.77;;;;;;;;;;10459173;28;20226;-67
2023/12/02 00:12:26;;;;;;;47.77;21.40;;;;;;;;;;10458460;28;20236;-66
2023/12/02 00:17:26;;;;;;;39.50;19.87;;;;;;;;;;10462414;28;20241;-65
2023/12/02 00:22:26;;;;;;;41.67;20.60;;;;;;;;;;10465652;28;20215;-65
2023/12/02 00:27:26;;;;;;;50.63;22.73;;;;;;;;;;10458491;28;20242;-65
2023/12/02 00:32:26;;;;;;;45.70;22.40;;;;;;;;;;10457936;28;20219;-65
2023/12/02 00:37:26;;;;;;;40.77;21.00;;;;;;;;;;10457894;28;20195;-66
2023/12/02 00:42:27;;;;;;;46.13;22.73;;;;;;;;;;10465104;28;20222;-65
2023/12/02 00:47:27;;;;;;;45.37;22.00;;;;;;;;;;10457984;28;20192;-65
2023/12/02 00:52:27;;;;;;;43.00;21.67;;;;;;;;;;10453949;28;20307;-66
2023/12/02 00:57:27;;;;;;;39.50;20.33;;;;;;;;;;10460665;28;20187;-65
2023/12/02 01:02:27;;;;;;;40.67;18.90;;;;;;;;;;10464327;28;20207;-66
2023/12/02 01:07:27;;;;;;;37.23;17.00;;;;;;;;;;10456521;28;20195;-66
2023/12/02 01:12:28;;;;;;;34.03;16.90;;;;;;;;;;10455225;28;20593;-66
2023/12/02 01:17:28;;;;;;;35.13;17.27;;;;;;;;;;10460442;28;20191;-66
2023/12/02 01:22:28;;;;;;;34.07;16.87;;;;;;;;;;10459958;28;20211;-65
2023/12/02 01:27:28;;;;;;;37.63;17.77;;;;;;;;;;10455738;28;20211;-66
2023/12/02 01:32:29;;;;;;;39.07;17.70;;;;;;;;;;10456138;28;20357;-65
2023/12/02 01:37:29;;;;;;;32.73;17.27;;;;;;;;;;10462755;28;20198;-66
2023/12/02 01:42:29;;;;;;;35.93;17.20;;;;;;;;;;10455407;28;20559;-66
2023/12/02 01:47:30;;;;;;;37.93;17.73;;;;;;;;;;10455274;28;20230;-66
2023/12/02 01:52:30;;;;;;;33.97;18.20;;;;;;;;;;10454796;28;20219;-66
2023/12/02 01:57:31;;;;;;;34.65;18.02;;;;;;;;;;10462141;28;20198;-66
2023/12/02 02:02:31;;;;;;;33.43;17.00;;;;;;;;;;10454207;28;20306;-66
2023/12/02 02:07:31;;;;;;;29.73;15.23;;;;;;;;;;10454575;28;20192;-65
2023/12/02 02:12:31;;;;;;;30.83;16.07;;;;;;;;;;10453743;28;20223;-66
2023/12/02 02:17:31;;;;;;;31.50;16.07;;;;;;;;;;10461051;28;20710;-66
2023/12/02 02:22:31;;;;;;;31.33;15.97;;;;;;;;;;10454056;28;20218;-65
2023/12/02 02:27:32;;;;;;;30.70;14.83;;;;;;;;;;10453198;28;20188;-65
2023/12/02 02:32:32;;;;;;;27.67;15.10;;;;;;;;;;10453863;28;20307;-65
2023/12/02 02:37:32;;;;;;;27.93;14.00;;;;;;;;;;10460798;28;20186;-66
2023/12/02 02:42:32;;;;;;;33.73;17.00;;;;;;;;;;10453469;28;20207;-65
2023/12/02 02:47:33;;;;;;;30.23;16.17;;;;;;;;;;10453083;28;20477;-66
2023/12/02 02:52:33;;;;;;;28.37;15.60;;;;;;;;;;10457106;28;20222;-65
2023/12/02 02:57:34;;;;;;;33.83;16.90;;;;;;;;;;10455146;28;20184;-65
2023/12/02 03:02:34;;;;;;;32.33;16.97;;;;;;;;;;10452708;28;20299;-65
2023/12/02 03:07:34;;;;;;;32.83;16.77;;;;;;;;;;10452332;28;20207;-66
2023/12/02 03:12:34;;;;;;;36.60;17.23;;;;;;;;;;10459143;28;20232;-65
2023/12/02 03:17:34;;;;;;;36.47;16.67;;;;;;;;;;10452418;28;20564;-65
2023/12/02 03:22:34;;;;;;;31.60;15.50;;;;;;;;;;10451805;28;20211;-66
2023/12/02 03:27:35;;;;;;;31.37;16.43;;;;;;;;;;10451432;28;20275;-66
2023/12/02 03:32:38;;;;;;;33.23;17.00;;;;;;;;;;10458643;28;20215;-66
2023/12/02 03:37:38;;;;;;;32.63;15.90;;;;;;;;;;10450883;28;20534;-66
2023/12/02 03:42:38;;;;;;;31.00;14.97;;;;;;;;;;10452772;28;20211;-66
2023/12/02 03:47:38;;;;;;;30.83;15.53;;;;;;;;;;10483896;28;20194;-66
2023/12/02 03:52:39;;;;;;;27.17;15.40;;;;;;;;;;10488129;28;20214;-66
2023/12/02 03:57:39;;;;;;;27.33;14.80;;;;;;;;;;10487761;28;20248;-66
2023/12/02 04:02:40;;;;;;;27.27;14.20;;;;;;;;;;10487971;28;21011;-66
2023/12/02 04:07:40;;;;;;;27.27;14.07;;;;;;;;;;10487379;28;20187;-65
2023/12/02 04:12:41;;;;;;;30.52;13.35;;;;;;;;;;10482438;28;20238;-65
2023/12/02 04:17:42;;;;;;;29.43;14.30;;;;;;;;;;10486017;28;20201;-65
2023/12/02 04:22:42;;;;;;;23.43;13.17;;;;;;;;;;10487279;28;20253;-65
2023/12/02 04:27:42;;;;;;;27.37;14.23;;;;;;;;;;10487290;28;20655;-66
2023/12/02 04:32:42;;;;;;;32.90;15.87;;;;;;;;;;10486876;28;20714;-65
2023/12/02 04:37:42;;;;;;;30.50;15.03;;;;;;;;;;10487151;28;20202;-66
2023/12/02 04:42:43;;;;;;;29.07;16.30;;;;;;;;;;10486789;28;20217;-65
2023/12/02 04:47:43;;;;;;;39.43;19.03;;;;;;;;;;10489709;28;20835;-66
2023/12/02 04:52:43;;;;;;;40.20;19.83;;;;;;;;;;10491784;28;20223;-65
2023/12/02 04:57:44;;;;;;;41.00;20.43;;;;;;;;;;10494136;28;20196;-67
2023/12/02 05:02:44;;;;;;;45.17;19.67;;;;;;;;;;10494000;28;20218;-67
2023/12/02 05:07:45;;;;;;;45.43;21.57;;;;;;;;;;10493679;28;20184;-65
2023/12/02 05:12:45;;;;;;;41.57;20.10;;;;;;;;;;10493267;28;20248;-65
2023/12/02 05:17:46;;;;;;;46.93;20.40;;;;;;;;;;10493049;28;20282;-66
2023/12/02 05:22:46;;;;;;;40.03;19.87;;;;;;;;;;10492938;28;20204;-66
2023/12/02 05:27:46;;;;;;;47.40;20.43;;;;;;;;;;10492627;28;21024;-66
2023/12/02 05:32:47;;;;;;;34.77;19.30;;;;;;;;;;10492478;28;20269;-66
2023/12/02 05:37:47;;;;;;;36.03;19.20;;;;;;;;;;10492633;28;20241;-66
2023/12/02 05:42:47;;;;;;;36.50;17.30;;;;;;;;;;10492318;28;20234;-66
2023/12/02 05:47:47;;;;;;;34.77;18.17;;;;;;;;;;10492408;28;20179;-66
2023/12/02 05:52:48;;;;;;;33.77;17.47;;;;;;;;;;10491761;28;20552;-66
2023/12/02 05:57:48;;;;;;;40.13;17.50;;;;;;;;;;10491469;28;20180;-65
2023/12/02 06:02:48;;;;;;;32.37;16.47;;;;;;;;;;10488290;28;20286;-66
2023/12/02 06:07:48;;;;;;;36.13;17.33;;;;;;;;;;10467517;28;20655;-65
2023/12/02 06:12:48;;;;;;;31.80;17.00;;;;;;;;;;10490844;28;20495;-64
2023/12/02 06:17:49;;;;;;;36.60;17.47;;;;;;;;;;10490858;28;20594;-65
2023/12/02 06:22:49;;;;;;;35.93;18.40;;;;;;;;;;10490773;28;20215;-66
2023/12/02 06:27:50;;;;;;;38.90;18.37;;;;;;;;;;10490451;28;20199;-66
2023/12/02 06:32:50;;;;;;;36.67;18.47;;;;;;;;;;10475691;28;20219;-66
2023/12/02 06:37:50;;;;;;;29.20;16.20;;;;;;;;;;10489915;28;20709;-66
2023/12/02 06:42:50;;;;;;;30.70;16.23;;;;;;;;;;10490310;28;20585;-66
2023/12/02 06:47:50;;;;;;;38.37;18.13;;;;;;;;;;10483133;28;20201;-65
2023/12/02 06:52:51;;;;;;;42.87;21.60;;;;;;;;;;10489289;28;20219;-65
2023/12/02 06:57:52;;;;;;;42.43;20.43;;;;;;;;;;10489348;28;20183;-66
2023/12/02 07:02:52;;;;;;;44.20;19.40;;;;;;;;;;10468217;28;20211;-66
2023/12/02 07:07:52;;;;;;;45.83;21.37;;;;;;;;;;10488837;28;20203;-66
2023/12/02 07:12:52;;;;;;;46.00;21.97;;;;;;;;;;10483161;28;20482;-66
2023/12/02 07:17:52;;;;;;;40.83;18.83;;;;;;;;;;10458686;28;20195;-66
2023/12/02 07:22:53;;;;;;;41.93;21.30;;;;;;;;;;10477170;28;20626;-66
2023/12/02 07:27:53;;;;;;;53.13;22.20;;;;;;;;;;10487632;28;20208;-65
2023/12/02 07:32:53;;;;;;;51.97;22.60;;;;;;;;;;10461888;28;20216;-63
2023/12/02 07:37:53;;;;;;;49.13;22.70;;;;;;;;;;10477905;28;20214;-64
2023/12/02 07:42:53;;;;;;;39.20;20.50;;;;;;;;;;10471988;28;20260;-64
2023/12/02 07:47:53;;;;;;;41.53;20.77;;;;;;;;;;10487823;28;20185;-64
2023/12/02 07:52:54;;;;;;;48.20;22.37;;;;;;;;;;10471644;28;20223;-65
2023/12/02 07:57:54;;;;;;;52.37;20.23;;;;;;;;;;10456112;28;20196;-64
2023/12/02 08:02:54;;;;;;;40.27;19.40;;;;;;;;;;10460221;28;20207;-65
2023/12/02 08:07:54;;;;;;;37.23;18.03;;;;;;;;;;10464544;28;20191;-66
2023/12/02 08:12:54;;;;;;;47.30;21.27;;;;;;;;;;10480004;28;20234;-66
2023/12/02 08:17:55;;;;;;;38.17;16.83;;;;;;;;;;10485080;28;20248;-67
2023/12/02 08:22:55;;;;;;;36.87;17.13;;;;;;;;;;10485147;28;20207;-66
2023/12/02 08:27:55;;;;;;;38.53;17.63;;;;;;;;;;10471954;28;20569;-66
2023/12/02 08:32:55;;;;;;;36.90;16.47;;;;;;;;;;10472641;28;20222;-65
2023/12/02 08:37:55;;;;;;;34.97;16.43;;;;;;;;;;10472940;28;20600;-65
2023/12/02 08:42:55;;;;;;;35.97;16.80;;;;;;;;;;10473217;28;20211;-66
2023/12/02 08:47:56;;;;;;;43.13;16.93;;;;;;;;;;10482406;28;20195;-66
2023/12/02 08:52:56;;;;;;;42.97;18.23;;;;;;;;;;10492258;28;20281;-65
2023/12/02 08:57:56;;;;;;;43.90;19.30;;;;;;;;;;10492874;28;20223;-66
2023/12/02 09:02:56;;;;;;;43.10;18.67;;;;;;;;;;10492526;28;20223;-66
2023/12/02 09:07:59;;;;;;;42.60;20.27;;;;;;;;;;10485420;28;20192;-66
2023/12/02 09:12:59;;;;;;;36.17;18.60;;;;;;;;;;10491563;28;20227;-66
2023/12/02 09:18:07;;;;;;;40.08;18.42;;;;;;;;;;10487032;28;20571;-66
2023/12/02 09:23:07;;;;;;;43.77;18.30;;;;;;;;;;10491252;28;20588;-65
2023/12/02 09:28:10;;;;;;;39.60;18.03;;;;;;;;;;10491473;28;20191;-66
2023/12/02 09:33:11;;;;;;;30.87;15.00;;;;;;;;;;10489968;28;20223;-66
2023/12/02 09:38:13;;;;;;;40.37;17.63;;;;;;;;;;10491467;28;20180;-67
2023/12/02 09:43:25;;;;;;;42.23;19.70;;;;;;;;;;10490786;28;20286;-67
2023/12/02 09:48:27;;;;;;;35.63;15.70;;;;;;;;;;10487726;28;20237;-67
2023/12/02 09:53:39;;;;;;;33.00;15.33;;;;;;;;;;10490437;28;20222;-67
2023/12/02 09:58:42;;;;;;;32.47;15.73;;;;;;;;;;10490659;28;20184;-67
2023/12/02 10:04:00;;;;;;;38.80;16.20;;;;;;;;;;10488844;28;20216;-66
2023/12/02 10:09:07;;;;;;;29.47;13.90;;;;;;;;;;10489572;28;20253;-67
2023/12/02 10:14:10;;;;;;;33.00;15.63;;;;;;;;;;10489280;28;20211;-67
2023/12/02 10:19:11;;;;;;;32.13;14.70;;;;;;;;;;10489652;28;20206;-66
2023/12/02 10:24:14;;;;;;;31.33;14.13;;;;;;;;;;10475624;28;20195;-66
2023/12/02 10:29:21;;;;;;;30.80;14.00;;;;;;;;;;10489078;28;20225;-66
2023/12/02 10:34:24;;;;;;;29.10;14.83;;;;;;;;;;10489388;28;20711;-67
2023/12/02 10:39:32;;;;;;;36.07;15.90;;;;;;;;;;10488704;28;20203;-66
2023/12/02 10:44:33;;;;;;;35.07;16.90;;;;;;;;;;10488225;28;20568;-66
2023/12/02 10:49:34;;;;;;;28.63;14.80;;;;;;;;;;10488379;28;20206;-66
2023/12/02 10:54:36;;;;;;;46.13;21.03;;;;;;;;;;10485145;28;20233;-66
2023/12/02 10:59:49;;;;;;;41.10;15.83;;;;;;;;;;10487788;28;20199;-67
2023/12/02 11:04:53;;;;;;;53.70;28.03;;;;;;;;;;10484976;28;20650;-66
2023/12/02 11:10:01;;;;;;;32.83;16.97;;;;;;;;;;10487537;28;20651;-65
2023/12/02 11:15:04;;;;;;;28.47;13.93;;;;;;;;;;10480945;28;20215;-67
2023/12/02 11:20:11;;;;;;;31.83;14.27;;;;;;;;;;10486735;28;20227;-66
2023/12/02 11:25:14;;;;;;;34.50;16.60;;;;;;;;;;10485215;28;20191;-66
2023/12/02 11:30:14;;;;;;;28.27;14.67;;;;;;;;;;10486705;28;20219;-67
2023/12/02 11:35:24;;;;;;;29.87;15.07;;;;;;;;;;10485534;28;20231;-66
2023/12/02 11:40:39;;;;;;;29.50;13.43;;;;;;;;;;10486187;28;20242;-66
2023/12/02 11:45:43;;;;;;;27.27;13.77;;;;;;;;;;10477610;28;20193;-66
2023/12/02 11:50:50;;;;;;;24.87;13.27;;;;;;;;;;10487325;28;20636;-66
2023/12/02 11:55:55;;;;;;;25.03;12.53;;;;;;;;;;10480807;28;20195;-66
2023/12/02 12:01:05;;;;;;;28.03;13.53;;;;;;;;;;10479726;28;20286;-64
2023/12/02 12:06:14;;;;;;;25.87;13.30;;;;;;;;;;10487245;28;20195;-66
2023/12/02 12:11:16;;;;;;;27.73;12.60;;;;;;;;;;10486996;28;20795;-65
2023/12/02 12:16:16;;;;;;;24.33;12.17;;;;;;;;;;10487278;28;20299;-66
2023/12/02 12:21:17;;;;;;;28.40;13.30;;;;;;;;;;10476456;28;20215;-65
2023/12/02 12:26:17;;;;;;;26.43;13.17;;;;;;;;;;10476518;28;20187;-66
2023/12/02 12:31:18;;;;;;;24.93;12.47;;;;;;;;;;10487002;28;20218;-66
2023/12/02 12:36:21;;;;;;;30.23;14.03;;;;;;;;;;10486983;28;20248;-66
2023/12/02 12:41:23;;;;;;;27.37;12.33;;;;;;;;;;10486839;28;20211;-66
2023/12/02 12:46:27;;;;;;;27.93;12.10;;;;;;;;;;10486885;28;20537;-66
2023/12/02 12:51:29;;;;;;;26.73;12.10;;;;;;;;;;10480033;28;20639;-66
2023/12/02 12:56:38;;;;;;;25.63;11.47;;;;;;;;;;10486513;28;20552;-66
2023/12/02 13:01:44;;;;;;;25.33;11.70;;;;;;;;;;10486662;28;20261;-67
2023/12/02 13:06:48;;;;;;;26.13;13.00;;;;;;;;;;10486595;28;20666;-66
2023/12/02 13:11:57;;;;;;;21.67;10.90;;;;;;;;;;10493510;28;20219;-66
2023/12/02 13:16:59;;;;;;;23.77;11.00;;;;;;;;;;10493361;28;20206;-66
2023/12/02 13:22:00;;;;;;;24.70;11.93;;;;;;;;;;10493320;28;20310;-66
2023/12/02 13:27:01;;;;;;;25.37;12.30;;;;;;;;;;10492622;28;20887;-66
2023/12/02 13:32:01;;;;;;;23.97;11.67;;;;;;;;;;10492665;28;20215;-65
2023/12/02 13:37:03;;;;;;;21.97;10.53;;;;;;;;;;10492124;28;20191;-65
2023/12/02 13:42:13;;;;;;;23.03;10.90;;;;;;;;;;10493066;28;20717;-65
2023/12/02 13:47:22;;;;;;;21.17;10.90;;;;;;;;;;10492310;28;20253;-66
2023/12/02 13:52:39;;;;;;;20.87;11.43;;;;;;;;;;10491909;28;20750;-66
2023/12/02 13:57:58;;;;;;;23.60;11.27;;;;;;;;;;10488530;28;20195;-65
2023/12/02 14:03:05;;;;;;;23.73;11.43;;;;;;;;;;10491843;28;20760;-66
2023/12/02 14:08:06;;;;;;;22.33;12.43;;;;;;;;;;10490666;28;20190;-66
2023/12/02 14:13:22;;;;;;;28.17;13.20;;;;;;;;;;10481886;28;20246;-66
2023/12/02 14:18:31;;;;;;;24.27;12.13;;;;;;;;;;10490589;28;20186;-66
2023/12/02 14:23:57;;;;;;;24.23;11.40;;;;;;;;;;10489991;28;20272;-66
2023/12/02 14:28:58;;;;;;;17.07;8.93;;;;;;;;;;10490488;28;20240;-66
2023/12/02 14:34:10;;;;;;;20.03;10.30;;;;;;;;;;10490495;28;20260;-66
2023/12/02 14:39:21;;;;;;;16.07;8.63;;;;;;;;;;10490131;28;20540;-66
2023/12/02 14:44:30;;;;;;;18.87;9.30;;;;;;;;;;10490242;28;20191;-66
2023/12/02 14:49:37;;;;;;;15.27;7.93;;;;;;;;;;10489675;28;20302;-66
2023/12/02 14:54:41;;;;;;;17.50;8.73;;;;;;;;;;10489285;28;20713;-66
2023/12/02 14:59:42;;;;;;;18.13;8.83;;;;;;;;;;10489604;28;20755;-66
2023/12/02 15:04:42;;;;;;;17.07;9.53;;;;;;;;;;10489081;28;20282;-67
2023/12/02 15:09:42;;;;;;;15.77;8.47;;;;;;;;;;10481928;28;20325;-66
2023/12/02 15:14:43;;;;;;;18.97;8.80;;;;;;;;;;10487240;28;20607;-65
2023/12/02 15:19:44;;;;;;;17.43;8.73;;;;;;;;;;10488735;28;20743;-66
2023/12/02 15:24:44;;;;;;;19.93;9.20;;;;;;;;;;10488829;28;20717;-66
2023/12/02 15:29:44;;;;;;;17.43;9.10;;;;;;;;;;10488104;28;20215;-66
2023/12/02 15:34:44;;;;;;;19.07;9.97;;;;;;;;;;10487581;28;20926;-66
2023/12/02 15:39:44;;;;;;;14.52;8.00;;;;;;;;;;10487946;28;20199;-65
2023/12/02 15:44:46;;;;;;;15.63;7.80;;;;;;;;;;10488363;28;20911;-65
2023/12/02 15:49:46;;;;;;;16.60;8.30;;;;;;;;;;10487687;28;20640;-65
2023/12/02 15:54:47;;;;;;;14.20;7.87;;;;;;;;;;10487625;28;20263;-65
2023/12/02 15:59:47;;;;;;;14.83;7.70;;;;;;;;;;10487500;28;20471;-66
2023/12/02 16:04:48;;;;;;;17.53;8.43;;;;;;;;;;10487576;28;20694;-65
2023/12/02 16:09:49;;;;;;;14.33;8.13;;;;;;;;;;10487061;28;20234;-66
2023/12/02 16:14:49;;;;;;;14.00;8.03;;;;;;;;;;10487475;28;20616;-66
2023/12/02 16:19:50;;;;;;;17.07;9.17;;;;;;;;;;10487324;28;20256;-65
2023/12/02 16:24:50;;;;;;;17.27;7.73;;;;;;;;;;10486900;28;20192;-66
2023/12/02 16:29:51;;;;;;;14.00;6.80;;;;;;;;;;10487120;28;20217;-66
2023/12/02 16:34:51;;;;;;;14.37;7.20;;;;;;;;;;10487306;28;20218;-66
2023/12/02 16:39:51;;;;;;;15.80;8.70;;;;;;;;;;10486949;28;20237;-66
2023/12/02 16:44:51;;;;;;;14.50;8.00;;;;;;;;;;10491727;28;20433;-66
2023/12/02 16:49:51;;;;;;;15.77;8.80;;;;;;;;;;10494279;28;20701;-66
2023/12/02 16:54:52;;;;;;;15.77;8.93;;;;;;;;;;10493792;28;20211;-66
2023/12/02 16:59:56;;;;;;;13.67;7.40;;;;;;;;;;10493904;28;20206;-66
2023/12/02 17:04:57;;;;;;;14.00;7.77;;;;;;;;;;10493701;28;20202;-65
2023/12/02 17:09:57;;;;;;;11.87;6.93;;;;;;;;;;10493453;28;20230;-65
2023/12/02 17:15:04;;;;;;;19.93;8.93;;;;;;;;;;10493337;28;20215;-65
2023/12/02 17:20:11;;;;;;;21.80;11.23;;;;;;;;;;10493410;28;20293;-65
2023/12/02 17:25:30;;;;;;;21.50;12.90;;;;;;;;;;10492912;28;20232;-65
2023/12/02 17:30:32;;;;;;;23.47;14.40;;;;;;;;;;10492144;28;20211;-66
2023/12/02 17:35:33;;;;;;;24.17;12.77;;;;;;;;;;10492857;28;20903;-65
2023/12/02 17:40:33;;;;;;;23.47;11.90;;;;;;;;;;10492331;28;20205;-65
2023/12/02 17:45:33;;;;;;;28.70;12.57;;;;;;;;;;10492303;28;20948;-65
2023/12/02 17:50:33;;;;;;;22.43;11.57;;;;;;;;;;10492011;28;20199;-65
2023/12/02 17:55:34;;;;;;;21.03;11.27;;;;;;;;;;10490847;28;20191;-65
2023/12/02 18:00:34;;;;;;;23.43;11.33;;;;;;;;;;10491636;28;20217;-65
2023/12/02 18:05:34;;;;;;;27.60;12.93;;;;;;;;;;10491609;28;20190;-65
2023/12/02 18:10:35;;;;;;;25.50;13.13;;;;;;;;;;10491018;28;20221;-65
2023/12/02 18:15:35;;;;;;;32.63;14.40;;;;;;;;;;10491076;28;20285;-66
2023/12/02 18:20:35;;;;;;;31.63;14.10;;;;;;;;;;10490728;28;20206;-66
2023/12/02 18:25:36;;;;;;;31.03;14.53;;;;;;;;;;10490376;28;20185;-66
2023/12/02 18:30:36;;;;;;;37.70;15.60;;;;;;;;;;10465525;28;20204;-66
2023/12/02 18:35:36;;;;;;;40.83;16.40;;;;;;;;;;10461280;28;20195;-65
2023/12/02 18:40:38;;;;;;;36.07;15.20;;;;;;;;;;10468578;28;20207;-67
2023/12/02 18:45:38;;;;;;;36.63;15.17;;;;;;;;;;10489396;28;20197;-68
2023/12/02 18:50:39;;;;;;;52.00;18.13;;;;;;;;;;10489442;28;20674;-67
2023/12/02 18:55:40;;;;;;;46.83;17.67;;;;;;;;;;10488770;28;20196;-67
2023/12/02 19:00:40;;;;;;;43.67;17.93;;;;;;;;;;10488901;28;20202;-67
2023/12/02 19:05:40;;;;;;;53.00;18.70;;;;;;;;;;10488563;28;20191;-68
2023/12/02 19:10:40;;;;;;;50.23;18.77;;;;;;;;;;10488207;28;20226;-67
2023/12/02 19:15:40;;;;;;;47.43;20.87;;;;;;;;;;10488561;28;20658;-67
2023/12/02 19:20:40;;;;;;;51.77;22.33;;;;;;;;;;10488027;28;20903;-68
2023/12/02 19:25:41;;;;;;;50.57;21.50;;;;;;;;;;10487940;28;20190;-67
2023/12/02 19:30:41;;;;;;;51.53;22.63;;;;;;;;;;10502964;22;20793;-67
2023/12/02 19:35:41;;;;;;;36.80;17.83;;;;;;;;;;10483968;28;20182;-66
2023/12/02 19:40:41;;;;;;;26.27;12.63;;;;;;;;;;10488537;28;20477;-67
2023/12/02 19:45:42;;;;;;;17.30;9.33;;;;;;;;;;10485857;28;20436;-66
2023/12/02 19:50:42;;;;;;;12.70;8.43;;;;;;;;;;10483710;28;20777;-67
2023/12/02 19:55:42;;;;;;;15.03;8.70;;;;;;;;;;10487694;28;20616;-66
2023/12/02 20:00:42;;;;;;;13.50;8.30;;;;;;;;;;10487649;28;20243;-67
2023/12/02 20:05:42;;;;;;;14.17;8.40;;;;;;;;;;10487289;28;20679;-67
2023/12/02 20:10:43;;;;;;;16.57;8.80;;;;;;;;;;10483398;28;21522;-66
2023/12/02 20:15:43;;;;;;;15.80;10.63;;;;;;;;;;10487543;28;20193;-67
2023/12/02 20:20:43;;;;;;;24.47;12.70;;;;;;;;;;10493747;28;20214;-67
2023/12/02 20:25:43;;;;;;;23.10;11.70;;;;;;;;;;10495424;28;20222;-68
2023/12/02 20:30:43;;;;;;;22.00;10.30;;;;;;;;;;10491135;28;20249;-67
2023/12/02 20:35:43;;;;;;;16.63;9.93;;;;;;;;;;10495195;28;20188;-67
2023/12/02 20:40:44;;;;;;;17.43;10.00;;;;;;;;;;10494723;28;20652;-68
2023/12/02 20:45:44;;;;;;;17.37;10.47;;;;;;;;;;10492066;28;20195;-68
2023/12/02 20:50:46;;;;;;;17.60;10.60;;;;;;;;;;10493073;28;20256;-68
2023/12/02 20:55:46;;;;;;;13.67;8.80;;;;;;;;;;10494376;28;20183;-67
2023/12/02 21:00:47;;;;;;;17.27;9.47;;;;;;;;;;10493900;28;20208;-67
2023/12/02 21:05:47;;;;;;;16.80;10.07;;;;;;;;;;10489868;28;20222;-67
2023/12/02 21:10:47;;;;;;;16.07;9.27;;;;;;;;;;10493733;28;20210;-67
2023/12/02 21:15:48;;;;;;;16.70;9.07;;;;;;;;;;10493126;28;20241;-68
2023/12/02 21:20:48;;;;;;;19.20;9.80;;;;;;;;;;10493619;28;20760;-68
2023/12/02 21:25:48;;;;;;;23.20;10.33;;;;;;;;;;10489129;28;20189;-68
2023/12/02 21:30:48;;;;;;;17.90;9.67;;;;;;;;;;10492709;28;20233;-67
2023/12/02 21:35:53;;;;;;;16.80;9.97;;;;;;;;;;10492615;28;20285;-67
2023/12/02 21:40:53;;;;;;;20.63;9.43;;;;;;;;;;10491645;28;20657;-67
2023/12/02 21:45:54;;;;;;;16.73;9.70;;;;;;;;;;10488176;28;20271;-68
2023/12/02 21:50:54;;;;;;;18.37;9.83;;;;;;;;;;10491742;28;20783;-66
2023/12/02 21:55:55;;;;;;;19.43;11.60;;;;;;;;;;10492100;28;20535;-68
2023/12/02 22:00:59;;;;;;;21.47;12.57;;;;;;;;;;10480207;28;20205;-68
2023/12/02 22:05:59;;;;;;;20.63;12.30;;;;;;;;;;10487684;28;20189;-68
2023/12/02 22:10:59;;;;;;;24.83;12.20;;;;;;;;;;10491463;28;20721;-67
2023/12/02 22:16:03;;;;;;;24.73;13.53;;;;;;;;;;10491389;28;20570;-67
2023/12/02 22:21:03;;;;;;;21.80;11.73;;;;;;;;;;10487664;28;20208;-68
2023/12/02 22:26:04;;;;;;;21.20;13.57;;;;;;;;;;10490907;28;20287;-68
2023/12/02 22:31:04;;;;;;;17.73;11.07;;;;;;;;;;10490833;28;20740;-67
2023/12/02 22:36:05;;;;;;;22.25;11.88;;;;;;;;;;10490657;28;20206;-68
2023/12/02 22:41:08;;;;;;;21.57;11.30;;;;;;;;;;10481977;28;20297;-67
2023/12/02 22:46:11;;;;;;;21.97;12.63;;;;;;;;;;10490315;28;20194;-67
2023/12/02 22:51:15;;;;;;;24.07;14.13;;;;;;;;;;10489591;28;20223;-68
2023/12/02 22:56:18;;;;;;;21.50;12.53;;;;;;;;;;10485935;28;20192;-68
2023/12/02 23:01:20;;;;;;;24.37;14.50;;;;;;;;;;10485797;28;20219;-67
2023/12/02 23:06:27;;;;;;;24.07;14.00;;;;;;;;;;10489219;28;20179;-67
2023/12/02 23:11:28;;;;;;;19.33;11.70;;;;;;;;;;10488906;28;20226;-67
2023/12/02 23:16:35;;;;;;;19.60;10.77;;;;;;;;;;10489341;28;20242;-67
2023/12/02 23:21:36;;;;;;;24.00;12.10;;;;;;;;;;10484734;28;20210;-67
2023/12/02 23:26:36;;;;;;;18.87;11.07;;;;;;;;;;10488595;28;20186;-67
2023/12/02 23:31:36;;;;;;;19.30;11.00;;;;;;;;;;10488253;28;20248;-67
2023/12/02 23:36:36;;;;;;;18.77;12.80;;;;;;;;;;10486460;28;20455;-68
2023/12/02 23:41:36;;;;;;;17.43;10.80;;;;;;;;;;10486286;28;20317;-67
2023/12/02 23:46:37;;;;;;;20.10;11.17;;;;;;;;;;10488133;28;20183;-68
2023/12/02 23:51:39;;;;;;;20.00;11.20;;;;;;;;;;10487194;28;20486;-68
2023/12/02 23:56:40;;;;;;;18.60;11.20;;;;;;;;;;10483597;28;20198;-66
